createdAt,value
2022-10-17T00:22:54.319Z,13.1
2022-10-17T00:53:11.576Z,11.1
2022-10-17T01:23:28.790Z,11
2022-10-17T01:53:46.256Z,12.3
2022-10-17T02:24:03.864Z,9.3
2022-10-17T02:54:22.466Z,8.5
2022-10-17T03:24:38.960Z,11.3
2022-10-17T03:54:56.925Z,10.3
2022-10-17T04:25:13.708Z,10.5
2022-10-17T04:55:31.644Z,10.4
2022-10-17T05:25:49.911Z,11.6
2022-10-17T05:56:09.007Z,10.2
2022-10-17T06:26:29.619Z,5.8
2022-10-17T06:56:53.896Z,5.3
2022-10-17T07:27:19.083Z,5.6
2022-10-17T07:57:47.515Z,5.4
2022-10-17T08:58:26.476Z,7.1
2022-10-17T09:28:48.602Z,6.9
2022-10-17T09:58:59.572Z,3.8
2022-10-17T10:29:29.634Z,5.6
2022-10-17T10:59:58.011Z,3.7
2022-10-17T11:30:19.020Z,3.4
2022-10-17T12:00:36.821Z,3
2022-10-17T12:30:43.919Z,2.2
2022-10-17T13:01:22.605Z,2.8
2022-10-17T13:31:21.374Z,2.7
2022-10-17T14:01:37.673Z,3.3
2022-10-17T14:31:55.195Z,4
2022-10-17T15:02:17.102Z,4
2022-10-17T15:32:33.934Z,3.2
2022-10-17T16:02:50.315Z,6.1
2022-10-17T16:33:06.347Z,4.9
2022-10-17T17:03:25.999Z,4.6
2022-10-17T17:33:42.943Z,5.6
2022-10-17T18:04:00.826Z,5.3
2022-10-17T19:04:35.025Z,8.9
2022-10-17T19:34:52.631Z,9.7
2022-10-17T20:05:18.561Z,8.9
2022-10-17T20:35:33.707Z,12.2
2022-10-17T21:05:52.528Z,8.8
2022-10-17T21:36:10.421Z,9.6
2022-10-17T22:06:40.052Z,7.6
2022-10-17T22:36:50.815Z,7.4
2022-10-17T23:07:08.964Z,6.9
2022-10-17T23:37:27.311Z,8.1
